Time;durP1;ratioP1;P1;durP2;ratioP2;P2;SDS_P1;SDS_P2;PMS_P1;PMS_P2;Temp;Humidity;BMP_temperature;BMP_pressure;BME280_temperature;BME280_humidity;BME280_pressure;Samples;Min_cycle;Max_cycle;Signal;HPM_P1;HPM_P2
2022/01/03 00:02:24;;;;;;;2.33;0.80;;;;;;;7.70;93.54;99328.28;5038911;28;20405;-57
2022/01/03 00:04:51;;;;;;;1.25;0.50;;;;;;;7.67;93.27;99327.50;5038222;28;20053;-57
2022/01/03 00:07:19;;;;;;;1.27;0.50;;;;;;;7.65;93.61;99322.38;5038821;28;20671;-57
2022/01/03 00:09:46;;;;;;;1.25;0.43;;;;;;;7.63;93.96;99321.56;5041021;28;20060;-57
2022/01/03 00:12:13;;;;;;;1.13;0.35;;;;;;;7.63;93.81;99331.03;5043171;28;20051;-57
2022/01/03 00:14:41;;;;;;;1.27;0.50;;;;;;;7.63;93.40;99320.69;5040499;28;20056;-57
2022/01/03 00:17:10;;;;;;;1.25;0.55;;;;;;;7.60;93.96;99326.78;5040009;28;20466;-57
2022/01/03 00:19:37;;;;;;;1.15;0.40;;;;;;;7.59;94.47;99320.75;5039868;28;20051;-57
2022/01/03 00:22:07;;;;;;;0.75;0.40;;;;;;;7.60;94.25;99322.47;5041033;28;20045;-57
2022/01/03 00:24:36;;;;;;;0.63;0.30;;;;;;;7.59;93.93;99319.91;5038232;28;20057;-57
2022/01/03 00:27:06;;;;;;;1.38;0.40;;;;;;;7.55;94.02;99326.84;5039311;28;20064;-57
2022/01/03 00:29:43;;;;;;;2.35;0.40;;;;;;;7.53;94.37;99326.03;5038757;28;20054;-57
2022/01/03 00:32:13;;;;;;;1.23;0.50;;;;;;;7.51;94.59;99332.94;5045756;28;20067;-57
2022/01/03 00:34:40;;;;;;;1.23;0.50;;;;;;;7.51;94.21;99332.09;5045967;28;20501;-57
2022/01/03 00:37:08;;;;;;;0.70;0.30;;;;;;;7.48;93.98;99332.16;5044057;28;20045;-57
2022/01/03 00:39:36;;;;;;;1.95;0.30;;;;;;;7.45;94.31;99333.06;5042149;28;20082;-57
2022/01/03 00:42:04;;;;;;;1.00;0.35;;;;;;;7.47;94.37;99331.31;5038195;28;20061;-57
2022/01/03 00:44:32;;;;;;;1.27;0.32;;;;;;;7.46;94.84;99321.88;5037114;28;20464;-57
2022/01/03 00:46:59;;;;;;;1.08;0.40;;;;;;;7.44;94.39;99336.50;5048685;28;20498;-57
2022/01/03 00:49:27;;;;;;;0.52;0.30;;;;;;;7.42;94.63;99332.28;5039579;28;20053;-57
2022/01/03 00:51:55;;;;;;;1.08;0.35;;;;;;;7.40;94.17;99339.19;5044171;28;20958;-57
2022/01/03 00:54:22;;;;;;;0.75;0.20;;;;;;;7.37;94.26;99340.09;5040496;28;20057;-57
2022/01/03 00:56:54;;;;;;;0.60;0.30;;;;;;;7.38;94.45;99341.78;5046413;28;20057;-57
2022/01/03 00:59:26;;;;;;;0.73;0.28;;;;;;;7.35;93.72;99343.56;5046473;28;20053;-57
2022/01/03 01:01:55;;;;;;;0.52;0.30;;;;;;;7.35;94.09;99347.00;5039254;28;20146;-57
2022/01/03 01:04:24;;;;;;;0.90;0.38;;;;;;;7.36;94.38;99338.38;5037508;28;20056;-57
2022/01/03 01:06:54;;;;;;;0.82;0.68;;;;;;;7.36;94.66;99351.28;5042897;28;20063;-57
2022/01/03 01:09:23;;;;;;;0.65;0.25;;;;;;;7.35;94.61;99347.00;5048166;28;20387;-57
2022/01/03 01:11:54;;;;;;;0.55;0.20;;;;;;;7.35;94.65;99352.16;5051716;28;20052;-57
2022/01/03 01:14:22;;;;;;;1.05;0.30;;;;;;;7.35;94.28;99357.31;5040382;28;20056;-57
2022/01/03 01:16:50;;;;;;;1.20;0.30;;;;;;;7.35;94.54;99356.47;5042421;28;20389;-57
2022/01/03 01:19:18;;;;;;;0.60;0.20;;;;;;;7.35;94.29;99361.63;5042033;28;20117;-57
2022/01/03 01:21:46;;;;;;;0.70;0.40;;;;;;;7.33;94.20;99363.38;5043251;28;20065;-57
2022/01/03 01:24:16;;;;;;;0.75;0.35;;;;;;;7.34;95.09;99365.06;5044734;28;20052;-57
2022/01/03 01:29:29;;;;;;;1.08;0.30;;;;;;;7.35;94.83;99366.78;5040865;28;20048;-57
2022/01/03 01:32:00;;;;;;;1.15;0.30;;;;;;;7.35;94.63;99372.78;5043488;28;20052;-57
2022/01/03 01:34:29;;;;;;;0.47;0.20;;;;;;;7.34;94.90;99365.06;5044092;28;20064;-57
2022/01/03 01:36:59;;;;;;;0.25;0.15;;;;;;;7.35;94.83;99362.47;5037543;28;20045;-57
2022/01/03 01:39:30;;;;;;;1.40;0.20;;;;;;;7.34;94.13;99363.34;5042597;28;20049;-57
2022/01/03 01:42:01;;;;;;;1.00;0.20;;;;;;;7.32;94.26;99367.66;5041687;28;20063;-57
2022/01/03 01:44:32;;;;;;;1.10;0.30;;;;;;;7.33;94.13;99377.09;5044668;28;20049;-57
2022/01/03 01:47:04;;;;;;;1.63;0.20;;;;;;;7.31;94.56;99378.84;5037661;28;20439;-56
2022/01/03 01:49:39;;;;;;;3.00;0.50;;;;;;;7.30;94.19;99377.16;5039836;28;20052;-57
2022/01/03 01:52:16;;;;;;;1.35;0.35;;;;;;;7.29;93.58;99378.03;5039704;28;20103;-57
2022/01/03 01:54:54;;;;;;;1.75;0.28;;;;;;;7.27;93.99;99380.59;5038228;28;20061;-57
2022/01/03 01:57:22;;;;;;;0.98;0.40;;;;;;;7.30;94.31;99374.56;5044320;28;20060;-58
2022/01/03 02:00:04;;;;;;;2.75;0.30;;;;;;;7.27;93.85;99392.66;5042590;28;20057;-57
2022/01/03 02:02:37;;;;;;;1.63;0.40;;;;;;;7.28;93.68;99389.19;5036540;28;20394;-57
2022/01/03 02:05:20;;;;;;;1.25;0.50;;;;;;;7.30;93.80;99395.19;5039338;28;20055;-57
2022/01/03 02:07:58;;;;;;;0.80;0.30;;;;;;;7.29;93.51;99390.91;5048371;28;20135;-57
2022/01/03 02:10:35;;;;;;;1.80;0.40;;;;;;;7.31;93.78;99402.06;5040163;28;20399;-57
2022/01/03 02:13:03;;;;;;;0.93;0.30;;;;;;;7.30;93.51;99400.34;5041970;28;20052;-57
2022/01/03 02:15:32;;;;;;;1.70;0.38;;;;;;;7.31;94.03;99401.22;5039907;28;20053;-57
2022/01/03 02:17:59;;;;;;;0.68;0.30;;;;;;;7.29;94.33;99403.81;5039172;28;20405;-57
2022/01/03 02:20:30;;;;;;;1.98;0.30;;;;;;;7.28;94.38;99408.13;5036801;28;20049;-57
2022/01/03 02:22:58;;;;;;;0.40;0.20;;;;;;;7.29;94.51;99411.53;5037588;28;20045;-57
2022/01/03 02:25:27;;;;;;;0.57;0.20;;;;;;;7.30;94.86;99410.66;5043178;28;20048;-57
2022/01/03 02:27:55;;;;;;;0.22;0.13;;;;;;;7.31;95.11;99411.53;5041287;28;20045;-57
2022/01/03 02:30:25;;;;;;;0.45;0.20;;;;;;;7.28;95.27;99422.69;5041127;28;20059;-57
2022/01/03 02:32:52;;;;;;;0.60;0.38;;;;;;;7.25;94.84;99412.44;5039106;28;20079;-57
2022/01/03 02:35:20;;;;;;;0.30;0.15;;;;;;;7.25;95.58;99408.13;5038661;28;20478;-57
2022/01/03 02:37:49;;;;;;;0.63;0.25;;;;;;;7.25;95.42;99415.88;5038661;28;20056;-57
2022/01/03 02:40:18;;;;;;;0.60;0.20;;;;;;;7.25;95.39;99413.28;5038454;28;20049;-57
2022/01/03 02:42:45;;;;;;;1.05;0.30;;;;;;;7.25;95.82;99425.31;5045830;28;20143;-57
2022/01/03 02:45:15;;;;;;;1.05;0.30;;;;;;;7.20;95.32;99419.41;5044797;28;20482;-57
2022/01/03 02:47:45;;;;;;;0.40;0.20;;;;;;;7.19;96.03;99422.84;5038042;28;20044;-57
2022/01/03 02:50:15;;;;;;;1.30;0.35;;;;;;;7.15;96.52;99416.88;5036085;28;20061;-57
2022/01/03 02:52:42;;;;;;;0.57;0.20;;;;;;;7.16;96.21;99428.91;5041573;28;20045;-57
2022/01/03 02:55:12;;;;;;;0.85;0.30;;;;;;;7.18;96.18;99410.84;5043325;28;20037;-57
2022/01/03 02:57:41;;;;;;;1.00;0.30;;;;;;;7.15;96.26;99416.03;5039190;28;20398;-57
2022/01/03 03:00:12;;;;;;;0.40;0.20;;;;;;;7.16;96.23;99425.47;5040626;28;20123;-57
2022/01/03 03:02:39;;;;;;;0.40;0.20;;;;;;;7.16;96.81;99431.47;5038128;28;20064;-57
2022/01/03 03:05:09;;;;;;;1.20;0.30;;;;;;;7.16;96.87;99421.16;5035520;28;20068;-57
2022/01/03 03:07:36;;;;;;;1.25;0.30;;;;;;;7.14;96.88;99425.50;5037611;28;20061;-57
2022/01/03 03:10:06;;;;;;;2.15;0.47;;;;;;;7.15;96.55;99427.19;5038578;28;20052;-57
2022/01/03 03:12:35;;;;;;;1.77;0.50;;;;;;;7.17;96.87;99419.44;5035406;28;20064;-57
2022/01/03 03:15:03;;;;;;;0.93;0.40;;;;;;;7.17;96.58;99434.91;5036798;28;20052;-57
2022/01/03 03:17:30;;;;;;;3.38;0.57;;;;;;;7.16;96.46;99434.06;5042486;28;21628;-57
2022/01/03 03:19:59;;;;;;;2.17;0.57;;;;;;;7.17;96.72;99434.91;5042923;28;20053;-57
2022/01/03 03:22:28;;;;;;;3.28;0.82;;;;;;;7.18;96.88;99436.59;5035365;28;20056;-57
2022/01/03 03:25:01;;;;;;;2.45;0.73;;;;;;;7.18;96.58;99436.59;5035924;28;20053;-57
2022/01/03 03:27:28;;;;;;;1.63;0.80;;;;;;;7.18;96.36;99436.59;5037590;28;20048;-57
2022/01/03 03:29:58;;;;;;;2.78;1.13;;;;;;;7.20;96.90;99437.44;5038903;28;20099;-57
2022/01/03 03:32:28;;;;;;;4.65;1.88;;;;;;;7.19;96.54;99446.03;5038659;28;20049;-57
2022/01/03 03:34:55;;;;;;;5.10;2.03;;;;;;;7.19;95.98;99443.47;5044122;28;20071;-56
2022/01/03 03:37:22;;;;;;;6.28;2.17;;;;;;;7.21;96.41;99445.13;5040241;28;20045;-57
2022/01/03 03:39:49;;;;;;;5.65;1.75;;;;;;;7.24;96.31;99451.97;5046395;28;20056;-57
2022/01/03 03:42:17;;;;;;;9.07;2.45;;;;;;;7.20;96.33;99450.31;5045931;28;20059;-57
2022/01/03 03:44:45;;;;;;;5.13;2.67;;;;;;;7.20;96.24;99455.47;5040317;28;20508;-57
2022/01/03 03:47:13;;;;;;;7.53;2.60;;;;;;;7.20;96.39;99450.31;5041764;28;20060;-57
2022/01/03 03:49:41;;;;;;;6.95;2.70;;;;;;;7.18;96.28;99452.06;5041131;28;20049;-57
2022/01/03 03:52:08;;;;;;;6.38;2.53;;;;;;;7.21;96.26;99458.03;5041168;28;20084;-57
2022/01/03 03:54:36;;;;;;;6.72;3.65;;;;;;;7.20;96.59;99455.47;5039914;28;20061;-57
2022/01/03 03:57:05;;;;;;;6.90;2.72;;;;;;;7.18;96.30;99449.50;5039785;28;20477;-57
2022/01/03 03:59:33;;;;;;;5.38;2.90;;;;;;;7.21;96.35;99446.88;5040728;28;20057;-56
2022/01/03 04:02:00;;;;;;;7.57;3.17;;;;;;;7.20;96.25;99445.16;5042755;28;20041;-57
2022/01/03 04:04:29;;;;;;;7.43;2.60;;;;;;;7.19;96.25;99448.63;5040486;28;20049;-57
2022/01/03 04:06:56;;;;;;;7.80;2.63;;;;;;;7.21;95.54;99452.03;5040102;28;20068;-57
2022/01/03 04:09:23;;;;;;;9.25;2.42;;;;;;;7.21;96.07;99452.88;5039757;28;20591;-57
2022/01/03 04:11:51;;;;;;;4.30;2.05;;;;;;;7.23;95.88;99455.44;5040919;28;20056;-57
2022/01/03 04:14:18;;;;;;;10.30;2.30;;;;;;;7.24;95.89;99457.13;5042322;28;20067;-57
2022/01/03 04:16:45;;;;;;;6.93;1.90;;;;;;;7.24;95.91;99446.81;5042517;28;20675;-57
2022/01/03 04:19:13;;;;;;;5.60;1.40;;;;;;;7.25;95.80;99449.38;5037464;28;20119;-57
2022/01/03 04:21:41;;;;;;;3.80;1.50;;;;;;;7.26;95.67;99447.66;5038694;28;21911;-57
2022/01/03 04:24:10;;;;;;;4.57;1.70;;;;;;;7.27;95.73;99452.78;5046481;28;20049;-57
2022/01/03 04:26:38;;;;;;;5.07;1.55;;;;;;;7.24;95.58;99447.66;5039815;28;20087;-57
2022/01/03 04:29:06;;;;;;;4.57;1.80;;;;;;;7.24;95.62;99451.97;5039435;28;20045;-57
2022/01/03 04:31:33;;;;;;;5.13;1.40;;;;;;;7.23;94.96;99447.69;5038006;28;20115;-57
2022/01/03 04:34:01;;;;;;;5.53;1.80;;;;;;;7.24;95.46;99451.97;5040028;28;20119;-57
2022/01/03 04:36:29;;;;;;;5.82;1.50;;;;;;;7.27;95.56;99451.94;5039876;28;20053;-57
2022/01/03 04:38:57;;;;;;;4.38;1.65;;;;;;;7.27;95.03;99457.09;5041991;28;20049;-57
2022/01/03 04:41:24;;;;;;;4.80;1.50;;;;;;;7.28;95.53;99454.50;5039385;28;20111;-57
2022/01/03 04:43:51;;;;;;;6.10;1.60;;;;;;;7.29;94.92;99455.38;5040950;28;20433;-57
2022/01/03 04:46:19;;;;;;;4.82;1.70;;;;;;;7.29;95.07;99450.22;5044628;28;20430;-56
2022/01/03 04:48:46;;;;;;;6.68;1.48;;;;;;;7.27;94.91;99446.78;5038372;28;21479;-57
2022/01/03 04:51:14;;;;;;;4.05;1.30;;;;;;;7.27;95.09;99454.50;5040930;28;20057;-57
2022/01/03 04:53:41;;;;;;;4.40;1.50;;;;;;;7.25;95.08;99445.94;5041393;28;20041;-57
2022/01/03 04:56:11;;;;;;;3.53;1.50;;;;;;;7.21;94.56;99446.88;5041204;28;20471;-57
2022/01/03 04:58:39;;;;;;;6.60;1.33;;;;;;;7.19;94.94;99446.03;5041550;28;20045;-57
2022/01/03 05:01:06;;;;;;;6.18;1.30;;;;;;;7.18;95.11;99452.06;5037125;28;20057;-57
2022/01/03 05:03:34;;;;;;;5.18;1.45;;;;;;;7.19;94.78;99446.03;5038075;28;20056;-56
2022/01/03 05:06:01;;;;;;;4.90;1.30;;;;;;;7.18;94.68;99445.19;5044496;28;20489;-57
2022/01/03 05:08:29;;;;;;;3.35;1.20;;;;;;;7.17;94.51;99440.06;5041577;28;20076;-57
2022/01/03 05:10:56;;;;;;;6.53;1.38;;;;;;;7.15;94.26;99452.13;5038688;28;20152;-57
2022/01/03 05:13:25;;;;;;;4.85;1.42;;;;;;;7.13;94.15;99449.56;5039700;28;20052;-57
2022/01/03 05:15:52;;;;;;;4.57;1.50;;;;;;;7.13;94.53;99444.41;5045455;28;20053;-57
2022/01/03 05:18:19;;;;;;;5.10;1.30;;;;;;;7.14;94.47;99451.25;5042847;28;20064;-58
2022/01/03 05:20:46;;;;;;;5.57;1.25;;;;;;;7.15;94.03;99446.97;5037723;28;20064;-57
2022/01/03 05:23:13;;;;;;;6.22;1.55;;;;;;;7.17;94.16;99450.38;5038107;28;20049;-57
2022/01/03 05:25:41;;;;;;;5.97;1.80;;;;;;;7.12;94.59;99449.59;5037498;28;20059;-57
2022/01/03 05:28:08;;;;;;;5.38;1.83;;;;;;;7.10;94.21;99453.91;5040794;28;20049;-57
2022/01/03 05:30:37;;;;;;;7.47;2.05;;;;;;;7.10;94.28;99459.06;5040305;28;20057;-57
2022/01/03 05:33:04;;;;;;;6.07;1.52;;;;;;;7.09;94.74;99465.09;5039925;28;20052;-57
2022/01/03 05:35:31;;;;;;;5.78;1.65;;;;;;;7.09;94.57;99458.22;5042122;28;20056;-57
2022/01/03 05:37:58;;;;;;;8.82;2.10;;;;;;;7.08;94.81;99456.50;5040517;28;20045;-57
2022/01/03 05:40:26;;;;;;;8.25;2.00;;;;;;;7.06;94.29;99458.25;5043052;28;20047;-57
2022/01/03 05:42:53;;;;;;;6.93;2.15;;;;;;;7.07;94.62;99459.13;5037684;28;20166;-57
2022/01/03 05:45:21;;;;;;;8.82;2.17;;;;;;;7.05;94.38;99466.88;5038470;28;20568;-57
2022/01/03 05:47:49;;;;;;;6.90;2.75;;;;;;;7.04;94.20;99465.16;5046603;28;20456;-57
2022/01/03 05:50:18;;;;;;;8.55;2.17;;;;;;;7.06;94.62;99467.72;5043527;28;20489;-57
2022/01/03 05:52:45;;;;;;;10.73;2.80;;;;;;;7.06;94.56;99473.72;5038540;28;20052;-57
2022/01/03 05:55:13;;;;;;;12.95;2.97;;;;;;;7.04;94.70;99469.47;5043057;28;20150;-57
2022/01/03 05:57:40;;;;;;;10.20;2.55;;;;;;;7.03;94.02;99470.34;5037179;28;20048;-57
2022/01/03 06:00:13;;;;;;;6.97;2.30;;;;;;;7.02;94.11;99473.78;5039346;28;21166;-57
2022/01/03 06:02:42;;;;;;;9.88;2.70;;;;;;;7.03;93.64;99473.75;5043696;28;20056;-57
2022/01/03 06:05:18;;;;;;;11.88;3.00;;;;;;;7.03;94.11;99467.75;5043240;28;20163;-57
2022/01/03 06:07:46;;;;;;;10.07;3.00;;;;;;;7.03;94.30;99468.63;5040609;28;20490;-57
2022/01/03 06:10:16;;;;;;;9.43;2.88;;;;;;;7.00;94.55;99468.66;5043474;28;20061;-57
2022/01/03 06:12:47;;;;;;;14.77;3.10;;;;;;;7.00;94.09;99472.97;5043749;28;20138;-57
2022/01/03 06:15:15;;;;;;;11.43;3.63;;;;;;;6.96;94.28;99482.47;5038889;28;20067;-57
2022/01/03 06:17:43;;;;;;;8.32;2.60;;;;;;;6.94;94.71;99487.63;5038932;28;20053;-57
2022/01/03 06:20:12;;;;;;;11.68;2.85;;;;;;;6.93;94.86;99485.94;5038599;28;20128;-57
2022/01/03 06:22:41;;;;;;;10.18;3.28;;;;;;;6.91;95.59;99485.09;5041670;28;20402;-57
2022/01/03 06:25:09;;;;;;;8.95;2.35;;;;;;;6.88;95.25;99492.88;5046232;28;20080;-57
2022/01/03 06:27:37;;;;;;;8.82;2.92;;;;;;;6.85;95.13;99503.22;5039482;28;20059;-57
2022/01/03 06:30:05;;;;;;;8.02;2.90;;;;;;;6.83;94.68;99486.06;5035504;28;20057;-57
2022/01/03 06:32:32;;;;;;;7.03;2.38;;;;;;;6.80;94.45;99501.56;5035836;28;20242;-57
2022/01/03 06:35:00;;;;;;;12.55;2.75;;;;;;;6.78;94.02;99499.00;5041680;28;20041;-57
2022/01/03 06:37:28;;;;;;;11.70;2.30;;;;;;;6.76;93.97;99503.31;5044884;28;20048;-57
2022/01/03 06:39:55;;;;;;;7.13;2.17;;;;;;;6.77;94.07;99501.59;5038299;28;20057;-57
2022/01/03 06:42:23;;;;;;;12.18;2.78;;;;;;;6.77;94.42;99499.03;5040602;28;20084;-57
2022/01/03 06:44:50;;;;;;;8.95;2.75;;;;;;;6.74;94.27;99497.31;5038810;28;20056;-57
2022/01/03 06:47:18;;;;;;;8.27;2.60;;;;;;;6.72;93.45;99493.91;5034750;28;20520;-57
2022/01/03 06:49:46;;;;;;;6.82;2.42;;;;;;;6.72;93.64;99496.47;5039696;28;20063;-57
2022/01/03 06:52:13;;;;;;;6.85;2.53;;;;;;;6.73;93.73;99495.59;5037298;28;22633;-57
2022/01/03 06:54:42;;;;;;;9.82;2.60;;;;;;;6.70;93.87;99487.91;5037765;28;20055;-58
2022/01/03 06:57:09;;;;;;;5.90;2.10;;;;;;;6.69;93.45;99487.94;5039378;28;20045;-58
2022/01/03 06:59:36;;;;;;;9.43;2.42;;;;;;;6.67;93.94;99490.53;5043486;28;20535;-57
2022/01/03 07:02:04;;;;;;;9.43;2.78;;;;;;;6.64;93.44;99490.56;5037881;28;20056;-57
2022/01/03 07:04:32;;;;;;;10.02;2.30;;;;;;;6.64;92.86;99495.72;5038830;28;20501;-58
2022/01/03 07:06:59;;;;;;;8.50;2.03;;;;;;;6.63;93.17;99494.03;5038784;28;20067;-46
2022/01/03 07:09:28;;;;;;;8.50;2.35;;;;;;;6.61;92.63;99490.63;5036110;28;20056;-53
2022/01/03 07:11:57;;;;;;;6.45;2.08;;;;;;;6.58;92.73;99490.66;5038087;28;20059;-48
2022/01/03 07:20:00;;;;;;;7.97;2.17;;;;;;;6.51;92.91;99491.59;5039998;28;20081;-53
2022/01/03 07:22:28;;;;;;;6.88;1.90;;;;;;;6.48;92.54;99479.63;5045334;28;20053;-51
2022/01/03 07:24:56;;;;;;;5.25;2.20;;;;;;;6.48;93.11;99494.22;5039289;28;20374;-50
2022/01/03 07:27:24;;;;;;;5.65;2.05;;;;;;;6.46;92.99;99490.81;5040383;28;20041;-52
2022/01/03 07:29:53;;;;;;;13.38;2.50;;;;;;;6.44;93.52;99482.25;5040721;28;20134;-55
2022/01/03 07:32:20;;;;;;;8.63;2.40;;;;;;;6.44;93.34;99487.41;5038910;28;20144;-51
2022/01/03 07:34:47;;;;;;;6.50;2.60;;;;;;;6.42;93.21;99474.53;5041604;28;20056;-52
2022/01/03 07:37:15;;;;;;;6.80;2.22;;;;;;;6.41;93.26;99495.16;5040916;28;20108;-52
2022/01/03 07:39:42;;;;;;;6.47;1.90;;;;;;;6.40;93.30;99494.31;5038573;28;20040;-54
2022/01/03 07:42:09;;;;;;;10.13;2.13;;;;;;;6.41;93.25;99492.56;5041866;28;20433;-50
2022/01/03 07:44:38;;;;;;;7.25;2.20;;;;;;;6.42;93.19;99496.84;5051382;28;20052;-48
2022/01/03 07:47:06;;;;;;;7.22;2.08;;;;;;;6.42;93.42;99491.72;5039900;28;20098;-51
2022/01/03 07:49:33;;;;;;;6.65;1.52;;;;;;;6.43;93.44;99495.97;5042522;28;20536;-49
2022/01/03 07:52:01;;;;;;;5.18;1.80;;;;;;;6.43;93.34;99495.97;5051729;28;20055;-51
2022/01/03 07:54:28;;;;;;;8.13;2.00;;;;;;;6.46;92.90;99496.81;5044759;28;20408;-52
2022/01/03 07:56:57;;;;;;;8.23;1.80;;;;;;;6.46;93.08;99501.94;5044585;28;20076;-56
2022/01/03 07:59:24;;;;;;;8.77;2.17;;;;;;;6.45;93.08;99500.25;5045205;28;20128;-49
2022/01/03 08:01:53;;;;;;;6.22;1.90;;;;;;;6.45;93.21;99504.53;5048618;28;20056;-52
2022/01/03 08:04:20;;;;;;;12.80;2.22;;;;;;;6.49;93.27;99511.38;5046282;28;20107;-50
2022/01/03 08:06:47;;;;;;;6.07;1.92;;;;;;;6.49;92.48;99506.22;5040935;28;20064;-50
2022/01/03 08:09:16;;;;;;;6.32;2.08;;;;;;;6.50;92.90;99507.91;5038875;28;20441;-56
2022/01/03 08:11:44;;;;;;;5.45;1.88;;;;;;;6.50;92.82;99505.34;5037908;28;20121;-52
2022/01/03 08:14:12;;;;;;;7.05;2.45;;;;;;;6.50;93.05;99510.50;5036417;28;20056;-55
2022/01/03 08:16:39;;;;;;;5.50;2.08;;;;;;;6.52;92.58;99508.75;5036515;28;20060;-56
2022/01/03 08:19:08;;;;;;;7.68;2.35;;;;;;;6.51;92.53;99513.03;5039821;28;20059;-57
2022/01/03 08:21:35;;;;;;;8.18;2.58;;;;;;;6.53;92.38;99513.03;5038235;28;20044;-57
2022/01/03 08:24:03;;;;;;;6.97;2.17;;;;;;;6.56;92.03;99516.41;5036753;28;20157;-57
2022/01/03 08:26:30;;;;;;;10.05;2.20;;;;;;;6.57;92.46;99520.69;5036498;28;20048;-57
2022/01/03 08:28:58;;;;;;;8.07;2.10;;;;;;;6.59;92.00;99512.94;5035817;28;20723;-56
2022/01/03 08:31:27;;;;;;;6.30;2.25;;;;;;;6.60;92.24;99514.66;5036496;28;20083;-55
2022/01/03 08:33:56;;;;;;;7.82;2.50;;;;;;;6.62;92.13;99516.34;5037656;28;20130;-52
2022/01/03 08:36:25;;;;;;;6.22;2.85;;;;;;;6.63;92.23;99519.78;5037821;28;20603;-53
2022/01/03 08:38:52;;;;;;;12.95;3.00;;;;;;;6.66;92.08;99514.59;5037105;28;20504;-57
2022/01/03 08:41:20;;;;;;;7.53;2.65;;;;;;;6.68;92.11;99522.28;5037075;28;20403;-58
2022/01/03 08:43:47;;;;;;;7.05;2.65;;;;;;;6.69;91.96;99530.00;5036381;28;20049;-54
2022/01/03 08:46:14;;;;;;;7.63;2.83;;;;;;;6.72;92.15;99529.09;5037627;28;20048;-53
2022/01/03 08:48:42;;;;;;;10.38;2.70;;;;;;;6.74;91.60;99538.53;5035660;28;20130;-58
2022/01/03 08:51:10;;;;;;;11.38;3.20;;;;;;;6.76;91.76;99539.34;5045469;28;20049;-52
2022/01/03 08:53:39;;;;;;;10.55;3.38;;;;;;;6.78;91.58;99540.22;5036865;28;20045;-50
2022/01/03 08:56:07;;;;;;;8.10;3.25;;;;;;;6.80;91.49;99543.63;5036784;28;20183;-54
2022/01/03 08:58:36;;;;;;;8.90;2.80;;;;;;;6.78;91.32;99550.53;5039269;28;20041;-52
2022/01/03 09:01:04;;;;;;;8.63;3.08;;;;;;;6.79;91.19;99551.38;5038180;28;20107;-49
2022/01/03 09:03:32;;;;;;;6.93;2.60;;;;;;;6.81;91.51;99547.91;5036372;28;20490;-48
2022/01/03 09:06:00;;;;;;;7.45;2.90;;;;;;;6.84;91.97;99549.59;5037553;28;20065;-49
2022/01/03 09:08:28;;;;;;;9.93;3.35;;;;;;;6.85;91.35;99546.16;5038833;28;20123;-51
2022/01/03 09:10:58;;;;;;;7.97;3.55;;;;;;;6.85;91.52;99553.88;5036453;28;20086;-48
2022/01/03 09:13:25;;;;;;;8.73;3.42;;;;;;;6.88;91.65;99559.84;5039495;28;20102;-51
2022/01/03 09:15:53;;;;;;;9.35;2.83;;;;;;;6.87;91.47;99559.88;5041682;28;20056;-53
2022/01/03 09:18:25;;;;;;;10.38;2.70;;;;;;;6.86;91.53;99556.44;5036932;28;20075;-53
2022/01/03 09:20:52;;;;;;;9.00;2.88;;;;;;;6.88;91.83;99553.84;5036268;28;20164;-52
2022/01/03 09:23:24;;;;;;;12.63;3.03;;;;;;;6.91;91.70;99567.53;5038069;28;20053;-58
2022/01/03 09:28:57;;;;;;;8.52;2.67;;;;;;;6.91;91.92;99561.53;5041818;28;20105;-53
2022/01/03 09:31:26;;;;;;;6.18;2.90;;;;;;;6.88;92.29;99554.69;5033839;28;20472;-54
2022/01/03 09:33:54;;;;;;;9.77;2.80;;;;;;;6.91;92.35;99552.06;5036390;28;20064;-52
2022/01/03 09:36:22;;;;;;;6.60;2.90;;;;;;;6.93;92.56;99544.31;5039957;28;20193;-54
2022/01/03 09:38:49;;;;;;;6.95;2.45;;;;;;;6.96;92.65;99545.13;5036323;28;20049;-50
2022/01/03 09:41:19;;;;;;;7.72;2.90;;;;;;;6.97;92.07;99546.84;5043642;28;20401;-54
2022/01/03 09:43:51;;;;;;;11.30;2.90;;;;;;;6.99;92.31;99543.41;5038509;28;20064;-53
2022/01/03 09:46:21;;;;;;;6.30;2.45;;;;;;;7.01;92.60;99546.81;5034205;28;20060;-52
2022/01/03 09:48:52;;;;;;;7.78;2.60;;;;;;;7.06;92.36;99545.03;5036970;28;20718;-51
2022/01/03 09:51:24;;;;;;;5.35;2.30;;;;;;;7.08;91.54;99544.13;5040253;28;20040;-53
2022/01/03 09:53:53;;;;;;;10.07;3.25;;;;;;;7.09;91.46;99537.25;5030136;28;20110;-56
2022/01/03 09:56:20;;;;;;;10.00;2.70;;;;;;;7.10;91.72;99546.69;5033166;28;20517;-57
2022/01/03 09:58:49;;;;;;;7.97;3.33;;;;;;;7.11;91.50;99550.97;5040460;28;20045;-55
2022/01/03 10:01:16;;;;;;;10.70;3.35;;;;;;;7.12;91.69;99550.09;5034232;28;20090;-56
2022/01/03 10:03:47;;;;;;;7.97;3.15;;;;;;;7.12;91.34;99550.09;5037774;28;20049;-59
2022/01/03 10:06:17;;;;;;;9.25;3.97;;;;;;;7.15;90.95;99550.91;5033805;28;20057;-57
2022/01/03 10:08:44;;;;;;;8.20;2.88;;;;;;;7.16;91.38;99551.75;5033896;28;20500;-48
2022/01/03 10:11:12;;;;;;;13.00;3.92;;;;;;;7.20;90.86;99548.25;5033595;28;20053;-52
2022/01/03 10:13:39;;;;;;;9.77;4.82;;;;;;;7.24;91.06;99545.63;5046954;28;20498;-54
2022/01/03 10:16:09;;;;;;;9.15;4.15;;;;;;;7.26;90.19;99543.88;5035974;28;20052;-50
2022/01/03 10:18:36;;;;;;;8.93;3.88;;;;;;;7.27;90.00;99544.72;5035372;28;20498;-51
2022/01/03 10:21:05;;;;;;;15.82;6.03;;;;;;;7.28;89.94;99551.59;5034799;28;20560;-48
2022/01/03 10:23:32;;;;;;;10.07;5.28;;;;;;;7.28;89.63;99546.44;5037674;28;20060;-54
2022/01/03 10:26:16;;;;;;;14.73;6.10;;;;;;;7.30;90.02;99549.88;5032693;28;20067;-51
2022/01/03 10:28:43;;;;;;;14.18;5.97;;;;;;;7.30;89.93;99539.56;5036553;28;20100;-55
2022/01/03 10:31:20;;;;;;;13.82;6.32;;;;;;;7.28;89.23;99554.16;5031414;28;20064;-57
2022/01/03 10:33:48;;;;;;;9.60;4.85;;;;;;;7.29;89.23;99553.31;5032648;28;20140;-54
2022/01/03 10:36:29;;;;;;;13.63;5.80;;;;;;;7.31;89.10;99548.13;5038844;28;20060;-54
2022/01/03 10:38:58;;;;;;;15.90;6.80;;;;;;;7.33;89.47;99549.81;5032927;28;20091;-57
2022/01/03 10:41:27;;;;;;;10.93;4.70;;;;;;;7.34;89.34;99550.69;5036051;28;20064;-56
2022/01/03 10:43:55;;;;;;;13.13;5.22;;;;;;;7.37;89.16;99550.63;5033842;28;20052;-58
2022/01/03 10:46:27;;;;;;;11.98;4.78;;;;;;;7.40;89.10;99541.13;5040567;28;20056;-48
2022/01/03 10:48:56;;;;;;;8.07;4.18;;;;;;;7.44;89.25;99542.78;5036620;28;20060;-56
2022/01/03 10:51:26;;;;;;;18.98;4.82;;;;;;;7.47;89.28;99537.56;5045588;28;20091;-58
2022/01/03 10:53:55;;;;;;;17.90;5.47;;;;;;;7.54;89.11;99546.94;5044149;28;20051;-55
2022/01/03 10:56:33;;;;;;;12.07;3.70;;;;;;;7.58;89.25;99540.84;5038981;28;20410;-50
2022/01/03 10:59:02;;;;;;;8.80;3.38;;;;;;;7.64;88.88;99532.16;5044591;28;20098;-52
2022/01/03 11:01:33;;;;;;;10.45;3.38;;;;;;;7.70;88.44;99536.38;5040298;28;20049;-54
2022/01/03 11:04:02;;;;;;;11.18;4.65;;;;;;;7.76;88.54;99523.38;5036691;28;20078;-55
2022/01/03 11:11:55;;;;;;;12.45;4.55;;;;;;;7.98;88.57;99527.31;5021793;28;20144;-59
2022/01/03 11:14:34;;;;;;;12.25;4.38;;;;;;;8.04;87.98;99529.78;5049984;28;20053;-48
2022/01/03 11:17:22;;;;;;;8.68;3.42;;;;;;;8.13;87.90;99524.47;5048212;28;20057;-53
2022/01/03 11:19:49;;;;;;;10.07;4.03;;;;;;;8.25;87.38;99518.22;5040644;28;20452;-57
2022/01/03 11:22:37;;;;;;;9.57;4.18;;;;;;;8.31;86.43;99517.25;5045732;28;20735;-55
2022/01/03 11:25:05;;;;;;;10.27;4.05;;;;;;;8.39;87.14;99526.63;5055093;28;20464;-56
2022/01/03 11:27:38;;;;;;;10.18;4.07;;;;;;;8.48;86.24;99520.44;5048775;28;20099;-58
2022/01/03 11:30:06;;;;;;;14.38;4.40;;;;;;;8.59;86.20;99513.31;5050334;28;20145;-55
2022/01/03 11:32:39;;;;;;;12.82;4.10;;;;;;;8.67;85.71;99506.28;5046962;28;20090;-55
2022/01/03 11:35:06;;;;;;;6.95;3.22;;;;;;;8.67;84.47;99508.84;5044681;28;20053;-55
2022/01/03 11:37:35;;;;;;;7.65;3.40;;;;;;;8.69;84.38;99514.84;5047203;28;20406;-55
2022/01/03 11:40:05;;;;;;;7.07;3.40;;;;;;;8.73;84.18;99518.22;5043899;28;20469;-58
2022/01/03 11:42:33;;;;;;;8.27;3.40;;;;;;;8.77;83.77;99506.94;5048753;28;20048;-57
2022/01/03 11:45:02;;;;;;;8.88;3.90;;;;;;;8.81;83.55;99509.41;5046949;28;20098;-58
2022/01/03 11:47:29;;;;;;;10.05;3.67;;;;;;;8.83;83.94;99504.22;5037889;28;20428;-57
2022/01/03 11:49:58;;;;;;;9.73;4.07;;;;;;;8.83;83.76;99520.56;5037431;28;20044;-58
2022/01/03 11:52:26;;;;;;;9.07;3.67;;;;;;;8.82;83.84;99505.09;5045090;28;20555;-57
2022/01/03 11:54:54;;;;;;;8.10;3.80;;;;;;;8.75;84.31;99514.72;5050594;28;20049;-58
2022/01/03 11:57:29;;;;;;;6.32;3.40;;;;;;;8.74;84.38;99518.19;5049892;28;20456;-58
2022/01/03 12:05:50;;;;;;;11.07;3.63;;;;;;;8.60;85.10;99521.94;5045132;28;20536;-57
2022/01/03 12:08:22;;;;;;;5.22;2.80;;;;;;;8.55;84.54;99522.03;5049527;28;20068;-57
2022/01/03 12:10:49;;;;;;;3.50;1.95;;;;;;;8.51;84.76;99515.22;5047707;28;20045;-55